Time;durP1;ratioP1;P1;durP2;ratioP2;P2;SDS_P1;SDS_P2;PMS_P1;PMS_P2;Temp;Humidity;BMP_temperature;BMP_pressure;BME280_temperature;BME280_humidity;BME280_pressure;Samples;Min_cycle;Max_cycle;Signal;HPM_P1;HPM_P2
2023/01/21 00:02:12;;;;;;;;;11.67;10.33;;;;;-146.37;100.00;59337.28;5121386;28;8838;-84
2023/01/21 00:04:37;;;;;;;;;10.00;10.00;;;;;-146.37;100.00;59337.28;5123670;27;8857;-83
2023/01/21 00:07:06;;;;;;;;;9.67;8.67;;;;;-146.37;100.00;59337.28;5120672;28;8819;-83
2023/01/21 00:09:32;;;;;;;;;9.75;9.75;;;;;-146.37;100.00;59337.28;5119054;28;8739;-83
2023/01/21 00:12:01;;;;;;;;;10.00;7.75;;;;;-146.37;100.00;59337.28;5122028;27;8787;-82
2023/01/21 00:14:28;;;;;;;;;5.75;5.00;;;;;-146.37;100.00;59337.28;5122233;27;8871;-82
2023/01/21 00:16:53;;;;;;;;;6.25;5.75;;;;;-146.37;100.00;59337.28;5121122;28;8786;-83
2023/01/21 00:19:18;;;;;;;;;5.00;5.00;;;;;-146.37;100.00;59337.28;5118716;28;9083;-84
2023/01/21 00:21:44;;;;;;;;;7.33;7.33;;;;;-146.37;100.00;59337.28;5120562;27;8807;-86
2023/01/21 00:24:09;;;;;;;;;6.00;6.00;;;;;-146.37;100.00;59337.28;5119976;28;8802;-86
2023/01/21 00:26:41;;;;;;;;;7.00;7.00;;;;;-146.37;100.00;59337.28;5119816;28;8795;-86
2023/01/21 00:29:08;;;;;;;;;6.00;5.25;;;;;-146.37;100.00;59337.28;5120180;28;8772;-85
2023/01/21 00:31:34;;;;;;;;;10.00;10.00;;;;;-146.37;100.00;59337.28;5115612;28;8834;-84
2023/01/21 00:33:59;;;;;;;;;8.33;8.33;;;;;-146.37;100.00;59337.28;5116039;28;8797;-83
2023/01/21 00:36:28;;;;;;;;;6.00;6.00;;;;;-146.37;100.00;59337.28;5099727;28;8884;-81
2023/01/21 00:38:56;;;;;;;;;11.75;7.75;;;;;-146.37;100.00;59337.28;5099558;28;8793;-82
2023/01/21 00:41:25;;;;;;;;;10.00;10.00;;;;;-146.37;100.00;59337.28;5099303;28;8805;-82
2023/01/21 00:43:51;;;;;;;;;6.75;4.50;;;;;-146.37;100.00;59337.28;5100176;28;8796;-80
2023/01/21 00:46:16;;;;;;;;;9.33;7.67;;;;;-146.37;100.00;59337.28;5101398;28;8861;-82
2023/01/21 00:48:42;;;;;;;;;7.00;7.00;;;;;-146.37;100.00;59337.28;5101016;28;8875;-82
2023/01/21 00:51:09;;;;;;;;;7.67;7.67;;;;;-146.37;100.00;59337.28;5103013;28;8841;-83
2023/01/21 00:53:45;;;;;;;;;7.25;7.25;;;;;-146.37;100.00;59337.28;5104387;28;8730;-82
2023/01/21 00:56:12;;;;;;;;;6.00;5.75;;;;;-146.37;100.00;59337.28;5100309;28;8762;-83
2023/01/21 00:58:38;;;;;;;;;6.25;6.25;;;;;-146.37;100.00;59337.28;5098811;28;8825;-83
2023/01/21 01:01:09;;;;;;;;;9.33;7.00;;;;;-146.37;100.00;59337.28;5098699;28;8817;-83
2023/01/21 01:06:57;;;;;;;;;10.00;10.00;;;;;-146.37;100.00;59337.28;5100837;28;8778;-83
2023/01/21 01:09:22;;;;;;;;;9.67;7.00;;;;;-146.37;100.00;59337.28;5098743;28;8832;-83
2023/01/21 01:11:47;;;;;;;;;11.00;9.00;;;;;-146.37;100.00;59337.28;5099538;28;8940;-83
2023/01/21 01:14:13;;;;;;;;;8.00;8.00;;;;;-146.37;100.00;59337.28;5098232;28;8734;-83
2023/01/21 01:16:38;;;;;;;;;10.67;9.67;;;;;-146.37;100.00;59337.28;5098116;28;8872;-83
2023/01/21 01:19:03;;;;;;;;;9.33;7.67;;;;;-146.37;100.00;59337.28;5099102;28;8904;-82
2023/01/21 01:21:29;;;;;;;;;9.33;9.33;;;;;-146.37;100.00;59337.28;5098099;28;8920;-82
2023/01/21 01:24:32;;;;;;;;;7.33;7.00;;;;;-146.37;100.00;59337.28;5095706;28;8829;-82
2023/01/21 01:26:57;;;;;;;;;8.75;8.75;;;;;-146.37;100.00;59337.28;5099599;28;8825;-82
2023/01/21 01:29:23;;;;;;;;;9.00;9.00;;;;;-146.37;100.00;59337.28;5101125;28;8772;-82
2023/01/21 01:31:48;;;;;;;;;7.00;7.00;;;;;-146.37;100.00;59337.28;5113604;27;8830;-83
2023/01/21 01:34:13;;;;;;;;;7.00;7.00;;;;;-146.37;100.00;59337.28;5121425;27;8916;-83
2023/01/21 01:36:42;;;;;;;;;11.00;10.00;;;;;-146.37;100.00;59337.28;5123497;27;8787;-83
2023/01/21 01:39:14;;;;;;;;;11.00;11.00;;;;;-146.37;100.00;59337.28;5140763;27;8755;-83
2023/01/21 01:41:39;;;;;;;;;8.25;8.00;;;;;-146.37;100.00;59337.28;5141649;27;8811;-83
2023/01/21 01:44:25;;;;;;;;;12.00;9.33;;;;;-146.37;100.00;59337.28;5141715;27;8791;-83
2023/01/21 01:46:54;;;;;;;;;10.00;8.50;;;;;-146.37;100.00;59337.28;5121620;27;8719;-83
2023/01/21 01:49:21;;;;;;;;;8.25;8.00;;;;;-146.37;100.00;59337.28;5143750;27;8763;-82
2023/01/21 01:51:57;;;;;;;;;11.00;10.25;;;;;-146.37;100.00;59337.28;5123045;27;8759;-82
2023/01/21 01:54:28;;;;;;;;;11.25;10.75;;;;;-146.37;100.00;59337.28;5125502;27;8781;-82
2023/01/21 01:56:58;;;;;;;;;11.00;10.25;;;;;-146.37;100.00;59337.28;5143781;27;8719;-82
2023/01/21 01:59:25;;;;;;;;;10.75;7.75;;;;;-146.37;100.00;59337.28;5124278;27;9598;-82
2023/01/21 02:01:52;;;;;;;;;12.75;9.50;;;;;-146.37;100.00;59337.28;5143052;27;8750;-83
2023/01/21 02:04:23;;;;;;;;;14.25;14.25;;;;;-146.37;100.00;59337.28;5142523;27;8872;-83
2023/01/21 02:06:51;;;;;;;;;11.25;10.75;;;;;-146.37;100.00;59337.28;5124126;27;8755;-82
2023/01/21 02:09:16;;;;;;;;;20.75;18.25;;;;;-146.37;100.00;59337.28;5143808;27;9582;-83
2023/01/21 02:11:41;;;;;;;;;13.67;13.33;;;;;-146.37;100.00;59337.28;5126280;27;8742;-82
2023/01/21 02:14:08;;;;;;;;;14.00;11.33;;;;;-146.37;100.00;59337.28;5127238;27;8937;-82
2023/01/21 02:17:03;;;;;;;;;11.00;11.00;;;;;-146.37;100.00;59337.28;5144100;27;8944;-81
2023/01/21 02:19:53;;;;;;;;;11.00;11.00;;;;;-146.37;100.00;59337.28;5126395;27;8777;-82
2023/01/21 02:22:43;;;;;;;;;14.75;12.75;;;;;-146.37;100.00;59337.28;5144298;27;9698;-83
2023/01/21 02:26:02;;;;;;;;;11.00;11.00;;;;;-146.37;100.00;59337.28;5124137;27;8723;-83
2023/01/21 02:28:40;;;;;;;;;13.50;12.00;;;;;-146.37;100.00;59337.28;5038355;28;8821;-83
2023/01/21 02:31:11;;;;;;;;;15.00;13.75;;;;;-146.37;100.00;59337.28;5022138;28;9609;-83
2023/01/21 02:33:43;;;;;;;;;16.25;14.25;;;;;-146.37;100.00;59337.28;5037934;28;8817;-82
2023/01/21 02:36:30;;;;;;;;;10.00;9.00;;;;;-146.37;100.00;59337.28;5021277;28;8965;-82
2023/01/21 02:39:05;;;;;;;;;12.25;11.25;;;;;-146.37;100.00;59337.28;5038402;28;8791;-82
2023/01/21 02:41:42;;;;;;;;;14.75;12.50;;;;;-146.37;100.00;59337.28;5020710;28;9640;-82
2023/01/21 02:44:13;;;;;;;;;8.50;6.50;;;;;-146.37;100.00;59337.28;5020556;28;9673;-83
2023/01/21 02:47:11;;;;;;;;;13.75;13.75;;;;;-146.37;100.00;59337.28;5020408;28;8806;-83
2023/01/21 02:49:45;;;;;;;;;13.50;13.25;;;;;-146.37;100.00;59337.28;5040337;28;8727;-83
2023/01/21 02:52:23;;;;;;;;;17.75;15.25;;;;;-146.37;100.00;59337.28;5022320;28;8763;-82
2023/01/21 02:54:53;;;;;;;;;17.50;14.50;;;;;-146.37;100.00;59337.28;5022885;28;8747;-82
2023/01/21 02:57:32;;;;;;;;;11.25;11.25;;;;;-146.37;100.00;59337.28;5038729;28;8853;-82
2023/01/21 02:59:59;;;;;;;;;13.25;11.50;;;;;-146.37;100.00;59337.28;5021281;28;8747;-83
2023/01/21 03:03:02;;;;;;;;;15.75;15.75;;;;;-146.37;100.00;59337.28;5084909;28;8761;-82
2023/01/21 03:05:36;;;;;;;;;18.25;15.00;;;;;-146.37;100.00;59337.28;5100897;28;8792;-82
2023/01/21 03:08:11;;;;;;;;;17.75;17.75;;;;;-146.37;100.00;59337.28;5101612;28;8786;-82
2023/01/21 03:10:46;;;;;;;;;18.75;18.00;;;;;-146.37;100.00;59337.28;5114846;28;8722;-82
2023/01/21 03:16:55;;;;;;;;;19.50;17.25;;;;;-146.37;100.00;59337.28;5098373;28;8891;-82
2023/01/21 03:18:54;;;;;;;;;17.25;15.50;;;;;-146.37;100.00;59337.28;5102386;28;8726;-82
2023/01/21 03:21:25;;;;;;;;;18.50;17.75;;;;;-146.37;100.00;59337.28;5100468;28;8772;-82
2023/01/21 03:23:52;;;;;;;;;20.25;17.50;;;;;-146.37;100.00;59337.28;5112753;28;8787;-83
2023/01/21 03:26:26;;;;;;;;;18.50;13.75;;;;;-146.37;100.00;59337.28;5120201;27;8798;-83
2023/01/21 03:28:56;;;;;;;;;24.00;22.00;;;;;-146.37;100.00;59337.28;5119265;28;8779;-82
2023/01/21 03:31:33;;;;;;;;;23.75;20.00;;;;;-146.37;100.00;59337.28;5122531;27;8783;-82
2023/01/21 03:34:04;;;;;;;;;24.25;22.75;;;;;-146.37;100.00;59337.28;5161346;27;8782;-82
2023/01/21 03:36:56;;;;;;;;;20.00;19.00;;;;;-146.37;100.00;59337.28;5142601;27;8803;-82
2023/01/21 03:39:47;;;;;;;;;21.50;21.50;;;;;-146.37;100.00;59337.28;5143138;27;9492;-82
2023/01/21 03:42:13;;;;;;;;;21.50;19.00;;;;;-146.37;100.00;59337.28;5161189;27;9858;-82
2023/01/21 03:44:40;;;;;;;;;22.50;20.75;;;;;-146.37;100.00;59337.28;5124241;27;8787;-82
2023/01/21 03:47:32;;;;;;;;;19.00;15.50;;;;;-146.37;100.00;59337.28;5120577;27;8791;-83
2023/01/21 03:50:16;;;;;;;;;20.75;18.50;;;;;-146.37;100.00;59337.28;5109238;27;8754;-83
2023/01/21 03:52:43;;;;;;;;;23.25;20.50;;;;;-146.37;100.00;59337.28;5139437;27;8727;-83
2023/01/21 03:55:10;;;;;;;;;21.25;21.25;;;;;-146.37;100.00;59337.28;5120432;27;8802;-83
2023/01/21 03:57:36;;;;;;;;;25.00;23.50;;;;;-146.37;100.00;59337.28;5121419;27;8825;-83
2023/01/21 04:00:03;;;;;;;;;24.00;23.33;;;;;-146.37;100.00;59337.28;5138971;27;8770;-83
2023/01/21 04:02:30;;;;;;;;;20.50;18.50;;;;;-146.37;100.00;59337.28;5119618;27;8844;-83
2023/01/21 04:04:56;;;;;;;;;23.00;21.33;;;;;-146.37;100.00;59337.28;5119692;27;8723;-83
2023/01/21 04:07:21;;;;;;;;;18.00;17.00;;;;;-146.37;100.00;59337.28;5119549;27;9157;-83
2023/01/21 04:09:48;;;;;;;;;21.00;20.00;;;;;-146.37;100.00;59337.28;5136079;27;8814;-84
2023/01/21 04:12:15;;;;;;;;;17.00;16.75;;;;;-146.37;100.00;59337.28;5119000;27;8774;-83
2023/01/21 04:14:40;;;;;;;;;21.33;20.67;;;;;-146.37;100.00;59337.28;5137623;27;8762;-83
2023/01/21 04:17:05;;;;;;;;;20.67;20.67;;;;;-146.37;100.00;59337.28;5137577;27;8989;-83
2023/01/21 04:19:31;;;;;;;;;26.33;24.67;;;;;-146.37;100.00;59337.28;5120268;27;8816;-82
2023/01/21 04:21:56;;;;;;;;;22.33;18.67;;;;;-146.37;100.00;59337.28;5138578;27;8814;-82
2023/01/21 04:24:21;;;;;;;;;22.00;22.00;;;;;-146.37;100.00;59337.28;5120976;27;8897;-83
2023/01/21 04:26:47;;;;;;;;;26.00;25.67;;;;;-146.37;100.00;59337.28;5121888;27;8783;-81
2023/01/21 04:29:12;;;;;;;;;30.33;25.00;;;;;-146.37;100.00;59337.28;5119421;27;8913;-83
2023/01/21 04:31:38;;;;;;;;;22.67;21.00;;;;;-146.37;100.00;59337.28;5118418;27;8807;-82
2023/01/21 04:34:03;;;;;;;;;26.67;23.67;;;;;-146.37;100.00;59337.28;5139285;27;9649;-83
2023/01/21 04:36:28;;;;;;;;;21.67;17.67;;;;;-146.37;100.00;59337.28;5139381;27;8829;-82
2023/01/21 04:38:54;;;;;;;;;24.33;24.00;;;;;-146.37;100.00;59337.28;5121630;27;8798;-83
2023/01/21 04:41:19;;;;;;;;;21.67;20.67;;;;;-146.37;100.00;59337.28;5120343;27;8814;-82
2023/01/21 04:43:44;;;;;;;;;22.00;20.33;;;;;-146.37;100.00;59337.28;5120249;27;8794;-83
2023/01/21 04:46:10;;;;;;;;;23.00;23.00;;;;;-146.37;100.00;59337.28;5139239;27;8798;-83
2023/01/21 04:48:36;;;;;;;;;22.00;20.67;;;;;-146.37;100.00;59337.28;5120289;27;9357;-83
2023/01/21 04:51:02;;;;;;;;;23.67;21.67;;;;;-146.37;100.00;59337.28;5139280;27;8814;-83
2023/01/21 04:53:29;;;;;;;;;26.33;21.00;;;;;-146.37;100.00;59337.28;5122198;27;8778;-83
2023/01/21 04:55:54;;;;;;;;;27.25;23.00;;;;;-146.37;100.00;59337.28;5139607;27;11520;-83
2023/01/21 04:58:20;;;;;;;;;23.67;22.00;;;;;-146.37;100.00;59337.28;5139840;27;8743;-83
2023/01/21 05:00:45;;;;;;;;;22.00;22.00;;;;;-146.37;100.00;59337.28;5119977;27;8818;-83
2023/01/21 05:03:11;;;;;;;;;21.33;21.00;;;;;-146.37;100.00;59337.28;5120611;27;8795;-83
2023/01/21 05:05:37;;;;;;;;;20.33;13.33;;;;;-146.37;100.00;59337.28;5139151;27;8775;-83
2023/01/21 05:08:03;;;;;;;;;19.75;18.00;;;;;-146.37;100.00;59337.28;5139343;27;8766;-83
2023/01/21 05:10:28;;;;;;;;;29.67;27.67;;;;;-146.37;100.00;59337.28;5117912;28;8828;-82
2023/01/21 05:12:54;;;;;;;;;32.67;22.33;;;;;-146.37;100.00;59337.28;5118951;28;8903;-83
2023/01/21 05:15:19;;;;;;;;;22.33;19.00;;;;;-146.37;100.00;59337.28;5118312;28;8745;-83
2023/01/21 05:17:45;;;;;;;;;19.67;16.67;;;;;-146.37;100.00;59337.28;5120259;28;8781;-83
2023/01/21 05:20:11;;;;;;;;;25.00;23.00;;;;;-146.37;100.00;59337.28;5100346;28;8796;-82
2023/01/21 05:22:36;;;;;;;;;22.50;21.00;;;;;-146.37;100.00;59337.28;5118938;28;8773;-83
2023/01/21 05:25:02;;;;;;;;;25.00;21.00;;;;;-146.37;100.00;59337.28;5103998;27;8863;-83
2023/01/21 05:27:28;;;;;;;;;26.67;22.00;;;;;-146.37;100.00;59337.28;5119390;28;8780;-83
2023/01/21 05:29:53;;;;;;;;;22.00;20.00;;;;;-146.37;100.00;59337.28;5118784;28;8800;-83
2023/01/21 05:32:18;;;;;;;;;20.67;17.33;;;;;-146.37;100.00;59337.28;5117944;28;8808;-83
2023/01/21 05:34:44;;;;;;;;;31.33;28.67;;;;;-146.37;100.00;59337.28;5119103;28;8911;-83
2023/01/21 05:37:10;;;;;;;;;24.00;24.00;;;;;-146.37;100.00;59337.28;5100516;28;8784;-82
2023/01/21 05:39:36;;;;;;;;;26.75;23.50;;;;;-146.37;100.00;59337.28;5121406;28;8769;-83
2023/01/21 05:42:02;;;;;;;;;20.67;20.67;;;;;-146.37;100.00;59337.28;5120001;28;8831;-83
2023/01/21 05:44:27;;;;;;;;;22.67;18.67;;;;;-146.37;100.00;59337.28;5118766;28;8811;-83
2023/01/21 05:46:52;;;;;;;;;24.67;23.00;;;;;-146.37;100.00;59337.28;5119948;28;8901;-83
2023/01/21 05:49:18;;;;;;;;;27.33;25.33;;;;;-146.37;100.00;59337.28;5121154;28;9527;-83
2023/01/21 05:51:44;;;;;;;;;27.67;25.00;;;;;-146.37;100.00;59337.28;5120902;28;8812;-83
2023/01/21 05:54:09;;;;;;;;;31.67;24.00;;;;;-146.37;100.00;59337.28;5100708;28;8828;-83
2023/01/21 05:56:34;;;;;;;;;27.67;25.00;;;;;-146.37;100.00;59337.28;5118402;28;8785;-83
2023/01/21 05:59:00;;;;;;;;;27.33;26.67;;;;;-146.37;100.00;59337.28;5119859;28;8853;-83
2023/01/21 06:01:26;;;;;;;;;30.33;27.00;;;;;-146.37;100.00;59337.28;5101960;28;8831;-83
2023/01/21 06:03:51;;;;;;;;;26.67;21.00;;;;;-146.37;100.00;59337.28;5120906;28;8773;-82
2023/01/21 06:06:17;;;;;;;;;28.00;24.67;;;;;-146.37;100.00;59337.28;5119044;28;8964;-82
2023/01/21 06:08:42;;;;;;;;;21.00;19.33;;;;;-146.37;100.00;59337.28;5118645;28;8838;-82
2023/01/21 06:11:08;;;;;;;;;24.00;24.00;;;;;-146.37;100.00;59337.28;5118939;28;8809;-83
2023/01/21 06:13:33;;;;;;;;;24.00;23.00;;;;;-146.37;100.00;59337.28;5119006;28;8871;-82
2023/01/21 06:15:58;;;;;;;;;31.33;23.00;;;;;-146.37;100.00;59337.28;5100691;28;8805;-82
2023/01/21 06:18:24;;;;;;;;;30.67;26.67;;;;;-146.37;100.00;59337.28;5118772;28;8784;-81
2023/01/21 06:20:50;;;;;;;;;30.67;23.67;;;;;-146.37;100.00;59337.28;5118695;28;8828;-82
2023/01/21 06:23:15;;;;;;;;;23.00;20.33;;;;;-146.37;100.00;59337.28;5117507;28;8797;-82
2023/01/21 06:25:42;;;;;;;;;26.00;20.33;;;;;-146.37;100.00;59337.28;5098859;28;8789;-82
2023/01/21 06:28:14;;;;;;;;;33.33;30.00;;;;;-146.37;100.00;59337.28;5101718;28;8797;-83
2023/01/21 06:30:39;;;;;;;;;27.00;27.00;;;;;-146.37;100.00;59337.28;5119567;28;8932;-83
2023/01/21 06:33:05;;;;;;;;;32.00;27.67;;;;;-146.37;100.00;59337.28;5092206;28;9140;-81
2023/01/21 06:35:30;;;;;;;;;25.67;25.67;;;;;-146.37;100.00;59337.28;5078202;28;9970;-82
2023/01/21 06:37:56;;;;;;;;;29.33;26.33;;;;;-146.37;100.00;59337.28;5078357;28;8808;-82
2023/01/21 06:40:21;;;;;;;;;35.67;30.67;;;;;-146.37;100.00;59337.28;5077982;28;8903;-82
2023/01/21 06:42:48;;;;;;;;;30.33;29.33;;;;;-146.37;100.00;59337.28;5077854;28;8929;-83
2023/01/21 06:45:21;;;;;;;;;34.67;31.00;;;;;-146.37;100.00;59337.28;5080472;28;8796;-83
2023/01/21 06:47:46;;;;;;;;;33.33;27.33;;;;;-146.37;100.00;59337.28;5078007;28;9136;-83
2023/01/21 06:50:14;;;;;;;;;27.33;27.00;;;;;-146.37;100.00;59337.28;5078950;28;9191;-83
2023/01/21 06:52:45;;;;;;;;;24.67;17.67;;;;;-146.37;100.00;59337.28;5080180;28;8779;-83
2023/01/21 06:55:11;;;;;;;;;30.33;27.00;;;;;-146.37;100.00;59337.28;5079213;28;9350;-82
2023/01/21 06:57:38;;;;;;;;;36.67;32.33;;;;;-146.37;100.00;59337.28;5080651;28;9206;-82
2023/01/21 07:00:04;;;;;;;;;34.00;27.33;;;;;-146.37;100.00;59337.28;5079406;28;9537;-82
2023/01/21 07:02:29;;;;;;;;;33.33;30.00;;;;;-146.37;100.00;59337.28;5079680;28;9142;-82
2023/01/21 07:04:55;;;;;;;;;38.00;33.00;;;;;-146.37;100.00;59337.28;5080415;28;9053;-81
2023/01/21 07:07:20;;;;;;;;;39.00;32.67;;;;;-146.37;100.00;59337.28;5079684;28;8890;-82
2023/01/21 07:09:45;;;;;;;;;34.33;28.67;;;;;-146.37;100.00;59337.28;5079981;28;8835;-82
2023/01/21 07:12:11;;;;;;;;;41.00;33.33;;;;;-146.37;100.00;59337.28;5080739;28;8804;-82
2023/01/21 07:14:36;;;;;;;;;34.00;28.67;;;;;-146.37;100.00;59337.28;5079618;28;8886;-82
2023/01/21 07:17:02;;;;;;;;;33.67;30.67;;;;;-146.37;100.00;59337.28;5080181;28;8808;-82
2023/01/21 07:19:27;;;;;;;;;39.00;37.33;;;;;-146.37;100.00;59337.28;5080033;28;8815;-83
2023/01/21 07:21:53;;;;;;;;;33.00;29.33;;;;;-146.37;100.00;59337.28;5077568;28;8832;-82
2023/01/21 07:24:19;;;;;;;;;39.33;37.67;;;;;-146.37;100.00;59337.28;5079714;28;8749;-82
2023/01/21 07:26:44;;;;;;;;;40.67;34.67;;;;;-146.37;100.00;59337.28;5082363;28;8823;-82
2023/01/21 07:29:10;;;;;;;;;38.67;32.00;;;;;-146.37;100.00;59337.28;5079437;28;8812;-83
2023/01/21 07:31:35;;;;;;;;;34.33;29.67;;;;;-146.37;100.00;59337.28;5081195;28;8761;-82
2023/01/21 07:34:01;;;;;;;;;36.67;30.00;;;;;-146.37;100.00;59337.28;5113349;28;8763;-82
2023/01/21 07:36:27;;;;;;;;;36.00;31.00;;;;;-146.37;100.00;59337.28;5122761;28;8740;-83
2023/01/21 07:38:53;;;;;;;;;37.00;34.67;;;;;-146.37;100.00;59337.28;5120972;28;8844;-82
2023/01/21 07:41:19;;;;;;;;;33.00;32.00;;;;;-146.37;100.00;59337.28;5118565;27;8807;-82
2023/01/21 07:43:47;;;;;;;;;31.67;31.67;;;;;-146.37;100.00;59337.28;5119145;27;9509;-83
2023/01/21 07:46:17;;;;;;;;;39.00;36.67;;;;;-146.37;100.00;59337.28;5120698;27;8767;-83
2023/01/21 07:48:43;;;;;;;;;32.33;29.00;;;;;-146.37;100.00;59337.28;5120389;28;9132;-82
2023/01/21 07:51:08;;;;;;;;;36.67;29.67;;;;;-146.37;100.00;59337.28;5116318;28;9362;-82
2023/01/21 07:53:34;;;;;;;;;44.00;40.00;;;;;-146.37;100.00;59337.28;5096803;28;8817;-82
2023/01/21 07:56:06;;;;;;;;;43.33;34.67;;;;;-146.37;100.00;59337.28;5098792;28;8805;-82
2023/01/21 07:58:34;;;;;;;;;43.33;36.33;;;;;-146.37;100.00;59337.28;5099704;28;8751;-83
2023/01/21 08:01:08;;;;;;;;;22.33;21.33;;;;;-146.37;100.00;59337.28;5099017;28;9367;-82
2023/01/21 08:03:36;;;;;;;;;34.67;33.67;;;;;-146.37;100.00;59337.28;5100124;28;9414;-82
2023/01/21 08:06:03;;;;;;;;;39.67;36.67;;;;;-146.37;100.00;59337.28;5099233;28;9415;-82
2023/01/21 08:08:28;;;;;;;;;38.67;27.33;;;;;-146.37;100.00;59337.28;5100206;28;9419;-82
2023/01/21 08:10:54;;;;;;;;;41.33;39.33;;;;;-146.37;100.00;59337.28;5100782;28;9346;-82
2023/01/21 08:13:20;;;;;;;;;46.67;39.00;;;;;-146.37;100.00;59337.28;5100425;28;8794;-82
2023/01/21 08:15:54;;;;;;;;;44.67;37.00;;;;;-146.37;100.00;59337.28;5097589;28;8773;-83
2023/01/21 08:18:23;;;;;;;;;39.33;37.33;;;;;-146.37;100.00;59337.28;5099566;28;9391;-83
2023/01/21 08:20:57;;;;;;;;;36.00;35.67;;;;;-146.37;100.00;59337.28;5099153;28;9514;-84
2023/01/21 08:23:22;;;;;;;;;40.33;34.00;;;;;-146.37;100.00;59337.28;5100364;28;9325;-84
2023/01/21 08:25:48;;;;;;;;;37.00;35.33;;;;;-146.37;100.00;59337.28;5099857;28;9213;-83
2023/01/21 08:28:13;;;;;;;;;42.67;40.00;;;;;-146.37;100.00;59337.28;5096248;28;8821;-83
2023/01/21 08:30:38;;;;;;;;;44.33;38.00;;;;;-146.37;100.00;59337.28;5096886;28;9587;-83
2023/01/21 08:33:04;;;;;;;;;48.00;42.00;;;;;-146.37;100.00;59337.28;5094843;28;8829;-83
2023/01/21 08:35:29;;;;;;;;;45.50;40.75;;;;;-146.37;100.00;59337.28;5095946;28;8789;-83
2023/01/21 08:37:57;;;;;;;;;37.33;36.00;;;;;-146.37;100.00;59337.28;5096737;28;8813;-83
2023/01/21 08:40:25;;;;;;;;;37.33;33.67;;;;;-146.37;100.00;59337.28;5098327;28;8754;-83
2023/01/21 08:43:00;;;;;;;;;52.00;42.33;;;;;-146.37;100.00;59337.28;5099100;28;9466;-83
2023/01/21 08:45:26;;;;;;;;;42.33;38.67;;;;;-146.37;100.00;59337.28;5096223;28;9475;-83
2023/01/21 08:47:52;;;;;;;;;49.67;40.33;;;;;-146.37;100.00;59337.28;5097569;28;9583;-82
2023/01/21 08:53:39;;;;;;;;;43.67;37.00;;;;;-146.37;100.00;59337.28;5099108;28;8766;-83
2023/01/21 08:56:05;;;;;;;;;46.33;35.67;;;;;-146.37;100.00;59337.28;5095718;28;9410;-83
2023/01/21 08:58:30;;;;;;;;;41.00;35.67;;;;;-146.37;100.00;59337.28;5096252;28;8778;-83
2023/01/21 09:00:56;;;;;;;;;33.33;30.67;;;;;-146.37;100.00;59337.28;5096781;28;8839;-83
2023/01/21 09:03:22;;;;;;;;;35.67;33.00;;;;;-146.37;100.00;59337.28;5097977;28;8801;-83
2023/01/21 09:05:50;;;;;;;;;41.75;38.25;;;;;-146.37;100.00;59337.28;5095914;28;8782;-83
2023/01/21 09:08:18;;;;;;;;;37.00;35.33;;;;;-146.37;100.00;59337.28;5094279;28;8778;-83
2023/01/21 09:11:02;;;;;;;;;51.25;41.50;;;;;-146.37;100.00;59337.28;5094981;28;9498;-83
2023/01/21 09:13:38;;;;;;;;;45.25;40.00;;;;;-146.37;100.00;59337.28;5096323;28;9505;-83
2023/01/21 09:16:12;;;;;;;;;50.33;41.00;;;;;-146.37;100.00;59337.28;5093962;28;9637;-83
2023/01/21 09:18:37;;;;;;;;;39.00;35.33;;;;;-146.37;100.00;59337.28;5095744;28;9532;-83
2023/01/21 09:21:05;;;;;;;;;41.67;36.67;;;;;-146.37;100.00;59337.28;5095459;28;9389;-83
2023/01/21 09:23:33;;;;;;;;;41.67;39.33;;;;;-146.37;100.00;59337.28;5093817;28;8785;-82
2023/01/21 09:26:15;;;;;;;;;44.67;41.00;;;;;-146.37;100.00;59337.28;5093846;28;9307;-84
2023/01/21 09:28:42;;;;;;;;;35.67;31.00;;;;;-146.37;100.00;59337.28;5092801;28;9506;-83
2023/01/21 09:31:11;;;;;;;;;48.33;40.00;;;;;-146.37;100.00;59337.28;5095597;28;9468;-83
2023/01/21 09:33:39;;;;;;;;;16.00;11.00;;;;;-146.37;100.00;59337.28;5093815;28;9589;-83
2023/01/21 09:36:06;;;;;;;;;47.33;42.33;;;;;-146.37;100.00;59337.28;5096387;28;9633;-83
2023/01/21 09:38:32;;;;;;;;;43.33;37.33;;;;;-146.37;100.00;59337.28;5095725;28;9378;-83
2023/01/21 09:41:11;;;;;;;;;48.33;41.67;;;;;-146.37;100.00;59337.28;5094351;28;9407;-84
2023/01/21 09:43:43;;;;;;;;;31.00;27.00;;;;;-146.37;100.00;59337.28;5097999;28;10877;-84
2023/01/21 09:46:20;;;;;;;;;46.00;39.00;;;;;-146.37;100.00;59337.28;5095277;28;9208;-83
2023/01/21 09:48:48;;;;;;;;;53.00;41.00;;;;;-146.37;100.00;59337.28;5093762;28;9268;-84
2023/01/21 09:51:21;;;;;;;;;44.33;38.67;;;;;-146.37;100.00;59337.28;5099809;27;9544;-82
2023/01/21 09:53:51;;;;;;;;;50.00;39.67;;;;;-146.37;100.00;59337.28;5095754;28;9313;-83
2023/01/21 09:56:59;;;;;;;;;52.75;41.25;;;;;-146.37;100.00;59337.28;5097196;28;9348;-82
2023/01/21 09:59:45;;;;;;;;;61.33;44.33;;;;;-146.37;100.00;59337.28;5083088;28;9462;-82
2023/01/21 10:02:35;;;;;;;;;50.67;41.00;;;;;-146.37;100.00;59337.28;5015722;28;9501;-82
2023/01/21 10:05:21;;;;;;;;;47.00;41.33;;;;;-146.37;100.00;59337.28;4999678;28;9278;-83
2023/01/21 10:07:56;;;;;;;;;53.00;43.00;;;;;-146.37;100.00;59337.28;5015069;28;9419;-83
2023/01/21 10:10:59;;;;;;;;;41.00;37.00;;;;;-146.37;100.00;59337.28;5020720;28;9681;-83
2023/01/21 10:14:06;;;;;;;;;54.00;44.00;;;;;-146.37;100.00;59337.28;5019671;28;9211;-82
2023/01/21 10:16:50;;;;;;;;;48.33;44.33;;;;;-146.37;100.00;59337.28;4922047;29;9400;-82
2023/01/21 10:19:27;;;;;;;;;58.67;44.00;;;;;-146.37;100.00;59337.28;4925251;29;9428;-83
2023/01/21 10:22:02;;;;;;;;;46.00;40.67;;;;;-146.37;100.00;59337.28;4940112;29;9537;-82
2023/01/21 10:24:44;;;;;;;;;45.33;41.33;;;;;-146.37;100.00;59337.28;4921713;29;9305;-83
2023/01/21 10:27:15;;;;;;;;;51.00;40.67;;;;;-146.37;100.00;59337.28;4920687;29;9678;-82
2023/01/21 10:29:41;;;;;;;;;50.33;41.00;;;;;-146.37;100.00;59337.28;4921159;29;10347;-84
2023/01/21 10:32:14;;;;;;;;;42.00;40.33;;;;;-146.37;100.00;59337.28;4921791;29;10261;-83
2023/01/21 10:34:50;;;;;;;;;44.33;38.67;;;;;-146.37;100.00;59337.28;4939385;29;9390;-83
2023/01/21 10:37:40;;;;;;;;;45.67;38.67;;;;;-146.37;100.00;59337.28;4938312;29;9607;-83
2023/01/21 10:40:16;;;;;;;;;43.67;40.00;;;;;-146.37;100.00;59337.28;5002506;28;9417;-84
2023/01/21 10:43:02;;;;;;;;;42.33;39.67;;;;;-146.37;100.00;59337.28;5015438;28;10052;-82
2023/01/21 10:45:39;;;;;;;;;45.67;40.00;;;;;-146.37;100.00;59337.28;5015475;28;9541;-82
2023/01/21 10:48:13;;;;;;;;;42.67;35.00;;;;;-146.37;100.00;59337.28;5016417;28;9567;-82
2023/01/21 10:50:57;;;;;;;;;40.00;36.67;;;;;-146.37;100.00;59337.28;5057058;28;9413;-83
2023/01/21 10:53:40;;;;;;;;;59.00;43.33;;;;;-146.37;100.00;59337.28;5077025;28;9330;-82
2023/01/21 10:56:24;;;;;;;;;51.67;42.00;;;;;-146.37;100.00;59337.28;5077128;28;9371;-82
2023/01/21 10:58:59;;;;;;;;;49.33;41.67;;;;;-146.37;100.00;59337.28;5079371;28;9507;-82
2023/01/21 11:01:31;;;;;;;;;52.00;43.33;;;;;-146.37;100.00;59337.28;5080453;28;9612;-82
2023/01/21 11:04:02;;;;;;;;;43.00;40.67;;;;;-146.37;100.00;59337.28;5080299;28;9298;-82
2023/01/21 11:06:31;;;;;;;;;46.00;41.33;;;;;-146.37;100.00;59337.28;5079271;28;10130;-82
2023/01/21 11:09:01;;;;;;;;;51.33;44.33;;;;;-146.37;100.00;59337.28;5098721;28;9363;-83
2023/01/21 11:11:30;;;;;;;;;41.67;33.00;;;;;-146.37;100.00;59337.28;5082145;28;9465;-83
2023/01/21 11:13:56;;;;;;;;;47.67;40.67;;;;;-146.37;100.00;59337.28;5081126;28;9290;-82
2023/01/21 11:16:53;;;;;;;;;49.67;42.67;;;;;-146.37;100.00;59337.28;5094576;28;9506;-83
2023/01/21 11:19:23;;;;;;;;;47.67;40.00;;;;;-146.37;100.00;59337.28;5095378;28;8814;-82
2023/01/21 11:22:02;;;;;;;;;46.33;41.67;;;;;-146.37;100.00;59337.28;5095109;28;9396;-83
2023/01/21 11:24:29;;;;;;;;;46.00;40.33;;;;;-146.37;100.00;59337.28;5078596;28;9378;-83
2023/01/21 11:26:58;;;;;;;;;54.75;45.50;;;;;-146.37;100.00;59337.28;5094959;28;9320;-82
2023/01/21 11:29:25;;;;;;;;;45.67;42.00;;;;;-146.37;100.00;59337.28;5095323;28;9505;-82